createdAt,value
2022-11-02T05:01:45.856Z,11.07
2022-11-02T05:05:55.250Z,8.45
2022-11-02T05:09:59.493Z,10.38
2022-11-02T05:14:02.457Z,6.13
2022-11-02T05:22:13.085Z,13.05
2022-11-02T05:26:15.858Z,6.75
2022-11-02T05:30:22.527Z,6.60
2022-11-02T05:34:26.679Z,9.88
2022-11-02T05:38:30.279Z,12.02
2022-11-02T05:42:35.489Z,8.98
2022-11-02T05:46:38.382Z,9.15
2022-11-02T05:50:42.367Z,7.60
2022-11-02T05:54:45.052Z,9.23
2022-11-02T05:58:47.748Z,6.13
2022-11-02T06:02:58.015Z,6.67
2022-11-02T06:07:02.018Z,8.93
2022-11-02T06:11:06.064Z,8.63
2022-11-02T06:15:09.893Z,8.43
2022-11-02T06:19:12.513Z,9.32
2022-11-02T06:23:18.149Z,6.80
2022-11-02T06:27:20.776Z,8.60
2022-11-02T06:35:26.871Z,8.57
2022-11-02T06:39:30.959Z,5.67
2022-11-02T06:43:34.369Z,9.05
2022-11-02T06:47:38.259Z,4.63
2022-11-02T06:51:40.859Z,8.80
2022-11-02T06:55:44.987Z,5.17
2022-11-02T06:59:51.398Z,4.13
2022-11-02T07:03:56.566Z,9.77
2022-11-02T07:07:59.252Z,9.40
2022-11-02T07:12:03.597Z,9.70
2022-11-02T07:16:06.756Z,7.00
2022-11-02T07:20:10.579Z,7.50
2022-11-02T07:24:13.576Z,6.90
2022-11-02T07:28:17.544Z,8.87
2022-11-02T07:32:20.262Z,6.50
2022-11-02T07:36:23.000Z,6.73
2022-11-02T07:40:26.206Z,8.80
2022-11-02T07:44:30.917Z,6.47
2022-11-02T07:48:33.558Z,8.35
2022-11-02T07:52:36.188Z,7.43
2022-11-02T07:56:38.856Z,7.57
2022-11-02T08:00:43.497Z,9.50
2022-11-02T08:04:46.223Z,8.48
2022-11-02T08:08:49.424Z,8.45
2022-11-02T08:12:52.145Z,11.17
2022-11-02T08:16:56.267Z,6.73
2022-11-02T08:21:00.043Z,8.80
2022-11-02T08:25:02.819Z,6.68
2022-11-02T08:29:05.514Z,5.35
2022-11-02T08:33:13.340Z,6.13
2022-11-02T08:37:16.088Z,6.10
2022-11-02T08:41:18.727Z,7.30
2022-11-02T08:45:21.354Z,8.77
2022-11-02T08:49:25.362Z,7.50
2022-11-02T08:53:28.194Z,5.90
2022-11-02T08:57:30.823Z,7.07
2022-11-02T09:01:33.691Z,7.27
2022-11-02T09:05:39.625Z,6.80
2022-11-02T09:09:42.440Z,9.45
2022-11-02T09:13:45.175Z,6.55
2022-11-02T09:17:48.979Z,7.47
2022-11-02T09:21:52.943Z,11.15
2022-11-02T09:25:55.550Z,5.75
2022-11-02T09:29:58.169Z,10.37
2022-11-02T09:34:00.814Z,4.27
2022-11-02T09:38:05.154Z,8.73
2022-11-02T09:42:14.266Z,4.97
2022-11-02T09:46:20.764Z,5.88
2022-11-02T09:54:34.714Z,9.05
2022-11-02T09:58:40.427Z,7.18
2022-11-02T10:02:53.359Z,5.93
2022-11-02T10:07:05.854Z,8.98
2022-11-02T10:11:23.828Z,9.82
2022-11-02T10:15:31.340Z,11.48
2022-11-02T10:19:39.167Z,14.18
2022-11-02T10:23:43.234Z,4.95
2022-11-02T10:27:51.497Z,5.07
2022-11-02T10:31:54.224Z,5.70
2022-11-02T10:36:18.606Z,7.25
2022-11-02T10:40:37.245Z,5.90
2022-11-02T10:44:59.035Z,5.65
2022-11-02T10:49:07.451Z,8.25
2022-11-02T10:53:39.349Z,5.32
2022-11-02T10:57:40.718Z,4.30
2022-11-02T11:01:48.684Z,6.68
2022-11-02T11:05:59.177Z,9.48
2022-11-02T11:10:01.867Z,4.47
2022-11-02T11:23:10.026Z,7.53
2022-11-02T11:27:18.133Z,6.18
2022-11-02T11:31:21.426Z,4.85
2022-11-02T11:35:29.527Z,5.78
2022-11-02T11:39:33.751Z,7.05
2022-11-02T11:43:39.208Z,4.63
2022-11-02T11:47:44.089Z,2.08
2022-11-02T11:51:51.841Z,10.45
2022-11-02T11:55:57.805Z,6.25
2022-11-02T12:00:04.969Z,8.48
2022-11-02T12:04:09.431Z,3.53
2022-11-02T12:08:24.274Z,7.35
2022-11-02T12:12:40.095Z,7.25
2022-11-02T12:17:04.202Z,3.70
2022-11-02T12:21:32.359Z,4.90
2022-11-02T12:25:48.285Z,2.75
2022-11-02T12:30:07.880Z,5.28
2022-11-02T12:34:33.672Z,7.88
2022-11-02T12:39:04.297Z,5.80
2022-11-02T12:43:20.323Z,7.65
2022-11-02T12:47:35.460Z,6.95
2022-11-02T12:51:41.623Z,3.35
2022-11-02T12:55:49.403Z,4.57
2022-11-02T12:59:58.867Z,6.68
2022-11-02T13:04:11.550Z,5.57
2022-11-02T13:08:19.006Z,2.33
2022-11-02T13:12:24.897Z,5.43
2022-11-02T13:16:38.801Z,3.75
2022-11-02T13:20:44.921Z,6.03
2022-11-02T13:24:52.289Z,5.95
2022-11-02T13:28:57.773Z,3.85
2022-11-02T13:33:05.635Z,6.03
2022-11-02T13:37:12.436Z,6.75
2022-11-02T13:41:28.915Z,5.95
2022-11-02T13:45:49.066Z,3.50
2022-11-02T13:49:57.261Z,3.78
2022-11-02T13:54:03.975Z,4.22
2022-11-02T13:58:07.173Z,6.78
2022-11-02T14:02:17.674Z,6.53
2022-11-02T14:06:22.321Z,3.90
2022-11-02T14:10:25.047Z,5.25
2022-11-02T14:14:27.926Z,3.70
2022-11-02T14:18:32.421Z,6.53
2022-11-02T14:22:36.362Z,5.80
2022-11-02T14:26:55.417Z,5.07
2022-11-02T14:31:02.409Z,4.57
2022-11-02T14:35:19.663Z,3.78
2022-11-02T14:39:35.323Z,5.78
2022-11-02T14:44:02.050Z,6.35
2022-11-02T14:48:07.194Z,7.70
2022-11-02T14:52:23.673Z,2.28
2022-11-02T14:56:48.641Z,5.10
2022-11-02T15:01:00.385Z,8.43
2022-11-02T15:05:07.123Z,2.42
2022-11-02T15:09:11.693Z,2.28
2022-11-02T15:13:36.430Z,5.85
2022-11-02T15:18:00.223Z,4.45
2022-11-02T15:22:33.580Z,9.65
2022-11-02T15:26:42.423Z,7.80
2022-11-02T15:30:50.184Z,2.72
2022-11-02T15:34:55.404Z,6.38
2022-11-02T15:38:58.290Z,6.30
2022-11-02T15:43:09.953Z,3.70
2022-11-02T15:47:26.537Z,5.90
2022-11-02T15:51:38.202Z,3.72
2022-11-02T15:55:51.487Z,5.10
2022-11-02T16:00:15.495Z,3.85
2022-11-02T16:04:21.730Z,6.10
2022-11-02T16:08:26.540Z,5.80
2022-11-02T16:12:31.809Z,7.30
2022-11-02T16:16:35.987Z,4.75
2022-11-02T16:20:40.844Z,9.98
2022-11-02T16:24:47.286Z,9.60
2022-11-02T16:28:52.201Z,15.80
2022-11-02T16:33:01.733Z,10.98
2022-11-02T16:37:10.503Z,6.90
2022-11-02T16:41:16.371Z,7.68
2022-11-02T16:45:42.085Z,6.13
2022-11-02T16:49:59.656Z,5.32
2022-11-02T16:54:34.790Z,4.68
2022-11-02T16:58:38.869Z,2.30
2022-11-02T17:02:43.424Z,18.30
2022-11-02T17:06:48.016Z,8.63
2022-11-02T17:10:57.184Z,17.60
2022-11-02T17:15:04.738Z,9.40
2022-11-02T17:19:08.427Z,8.00
2022-11-02T17:23:33.142Z,10.90
2022-11-02T17:27:39.357Z,11.82
2022-11-02T17:31:46.349Z,10.02
2022-11-02T17:35:51.632Z,12.10
2022-11-02T17:39:55.507Z,34.08
2022-11-02T17:43:59.008Z,22.15
2022-11-02T17:52:06.151Z,18.65
2022-11-02T17:56:11.048Z,18.20
2022-11-02T18:00:15.058Z,12.15
2022-11-02T18:04:19.019Z,11.32
2022-11-02T18:08:21.678Z,14.55
2022-11-02T18:12:24.310Z,15.40
2022-11-02T18:16:27.169Z,16.07
2022-11-02T18:20:31.923Z,11.95
2022-11-02T18:24:34.553Z,10.55
2022-11-02T18:28:37.320Z,11.33
2022-11-02T18:32:40.866Z,17.37
2022-11-02T18:40:47.255Z,12.32
2022-11-02T18:44:49.893Z,17.93
2022-11-02T18:48:52.861Z,13.87
2022-11-02T18:52:56.885Z,15.15
2022-11-02T18:57:01.768Z,13.52
2022-11-02T19:01:09.473Z,15.05
2022-11-02T19:05:26.151Z,13.25
2022-11-02T19:09:31.626Z,12.82
2022-11-02T19:13:34.308Z,14.68
2022-11-02T19:17:36.987Z,15.67
2022-11-02T19:21:39.874Z,16.77
2022-11-02T19:25:50.863Z,18.30
2022-11-02T19:29:53.648Z,19.25
2022-11-02T19:33:56.350Z,16.67
2022-11-02T19:37:59.166Z,18.57
2022-11-02T19:42:04.054Z,16.27
2022-11-02T19:46:08.668Z,12.10
2022-11-02T19:50:12.171Z,16.05
2022-11-02T19:58:18.985Z,16.60
2022-11-02T20:02:21.691Z,16.63
2022-11-02T20:06:27.826Z,16.27
2022-11-02T20:10:30.624Z,15.70
2022-11-02T20:14:36.285Z,13.30
2022-11-02T20:18:40.990Z,16.00
2022-11-02T20:22:43.865Z,16.55
2022-11-02T20:26:46.512Z,14.02
2022-11-02T20:30:50.812Z,13.63
2022-11-02T20:34:53.422Z,14.52
2022-11-02T20:38:56.475Z,20.03
2022-11-02T20:42:59.406Z,13.80
2022-11-02T20:47:03.401Z,12.38
2022-11-02T20:51:07.076Z,13.45
2022-11-02T20:55:10.004Z,12.30
2022-11-02T20:59:12.709Z,14.65
2022-11-02T21:03:16.994Z,16.37
2022-11-02T21:07:19.690Z,10.75
2022-11-02T21:11:40.236Z,16.80
2022-11-02T21:15:42.889Z,9.35
2022-11-02T21:19:46.880Z,7.17
2022-11-02T21:23:49.630Z,14.05
2022-11-02T21:27:52.423Z,14.43
2022-11-02T21:31:55.075Z,12.25
2022-11-02T21:35:59.690Z,11.03
2022-11-02T21:40:02.919Z,16.02
2022-11-02T21:44:06.586Z,11.63
2022-11-02T21:48:09.163Z,5.90
2022-11-02T21:52:13.120Z,6.20
2022-11-02T21:56:17.481Z,16.52
